Terminal Aerodrome Forecast
Issued by NWS

Home | Current Version | Previous Version | Text Only | Print | Product List | Glossary On
Versions: 1 2 3 4 5 6 7 8 9 10 11 12 13 14 15 16 17 18 19 20 21 22 23 24 25 26 27 28 29 30 31 32 33 34 35 36 37 38 39 40 41 42 43 44 45 46 47 48 49 50
000
FTUS43 KLOT 252000 AAA
TAFGYY
TAF AMD
KGYY 252000Z 2520/2618 07013G20KT 6SM -SHRA BR SCT015 OVC022
      TEMPO 2520/2521 3SM -RA BR OVC015
     FM252300 06013G20KT P6SM SCT025 OVC040
     FM260200 03011KT P6SM BKN050
     FM260600 03010KT P6SM SKC
     FM261400 02011KT P6SM SKC
     FM261700 02013G19KT P6SM SKC=

USA.gov is the U.S. government's official web portal to all federal, state and local government web resources and services.